sensor_id;sensor_type;location;lat;lon;timestamp;P1;durP1;ratioP1;P2;durP2;ratioP2
20336;SDS011;10326;53.660;10.200;2023-12-04T00:01:48;21.97;;;16.20;;
20336;SDS011;10326;53.660;10.200;2023-12-04T00:04:16;21.00;;;15.20;;
20336;SDS011;10326;53.660;10.200;2023-12-04T00:06:43;20.63;;;15.43;;
20336;SDS011;10326;53.660;10.200;2023-12-04T00:09:10;22.93;;;16.70;;
20336;SDS011;10326;53.660;10.200;2023-12-04T00:11:37;22.37;;;16.57;;
20336;SDS011;10326;53.660;10.200;2023-12-04T00:14:04;19.77;;;14.90;;
20336;SDS011;10326;53.660;10.200;2023-12-04T00:16:34;21.37;;;15.77;;
20336;SDS011;10326;53.660;10.200;2023-12-04T00:19:01;19.70;;;15.50;;
20336;SDS011;10326;53.660;10.200;2023-12-04T00:21:28;20.50;;;15.50;;
20336;SDS011;10326;53.660;10.200;2023-12-04T00:23:55;20.60;;;16.10;;
20336;SDS011;10326;53.660;10.200;2023-12-04T00:26:22;22.07;;;16.27;;
20336;SDS011;10326;53.660;10.200;2023-12-04T00:28:49;21.40;;;16.50;;
20336;SDS011;10326;53.660;10.200;2023-12-04T00:31:16;21.07;;;16.10;;
20336;SDS011;10326;53.660;10.200;2023-12-04T00:33:45;20.63;;;15.10;;
20336;SDS011;10326;53.660;10.200;2023-12-04T00:36:13;20.80;;;15.57;;
20336;SDS011;10326;53.660;10.200;2023-12-04T00:38:40;22.13;;;16.17;;
20336;SDS011;10326;53.660;10.200;2023-12-04T00:41:07;22.23;;;16.13;;
20336;SDS011;10326;53.660;10.200;2023-12-04T00:43:34;22.03;;;15.30;;
20336;SDS011;10326;53.660;10.200;2023-12-04T00:46:01;21.90;;;16.13;;
20336;SDS011;10326;53.660;10.200;2023-12-04T00:48:28;22.50;;;16.10;;
20336;SDS011;10326;53.660;10.200;2023-12-04T00:50:57;20.60;;;16.60;;
20336;SDS011;10326;53.660;10.200;2023-12-04T00:53:24;21.20;;;16.63;;
20336;SDS011;10326;53.660;10.200;2023-12-04T00:55:51;22.60;;;16.93;;
20336;SDS011;10326;53.660;10.200;2023-12-04T00:58:18;21.60;;;15.90;;
20336;SDS011;10326;53.660;10.200;2023-12-04T01:00:45;20.87;;;16.27;;
20336;SDS011;10326;53.660;10.200;2023-12-04T01:03:14;23.57;;;17.20;;
20336;SDS011;10326;53.660;10.200;2023-12-04T01:05:41;20.93;;;16.30;;
20336;SDS011;10326;53.660;10.200;2023-12-04T01:08:09;20.43;;;15.50;;
20336;SDS011;10326;53.660;10.200;2023-12-04T01:10:36;20.73;;;15.77;;
20336;SDS011;10326;53.660;10.200;2023-12-04T01:13:05;22.23;;;16.30;;
20336;SDS011;10326;53.660;10.200;2023-12-04T01:15:32;20.30;;;15.50;;
20336;SDS011;10326;53.660;10.200;2023-12-04T01:17:59;19.27;;;14.87;;
20336;SDS011;10326;53.660;10.200;2023-12-04T01:20:27;20.60;;;15.67;;
20336;SDS011;10326;53.660;10.200;2023-12-04T01:22:54;21.97;;;16.60;;
20336;SDS011;10326;53.660;10.200;2023-12-04T01:25:23;21.07;;;16.33;;
20336;SDS011;10326;53.660;10.200;2023-12-04T01:27:50;23.00;;;15.27;;
20336;SDS011;10326;53.660;10.200;2023-12-04T01:30:17;20.90;;;16.53;;
20336;SDS011;10326;53.660;10.200;2023-12-04T01:32:44;22.53;;;16.20;;
20336;SDS011;10326;53.660;10.200;2023-12-04T01:35:11;22.10;;;15.37;;
20336;SDS011;10326;53.660;10.200;2023-12-04T01:37:38;20.83;;;16.00;;
20336;SDS011;10326;53.660;10.200;2023-12-04T01:40:05;22.60;;;16.37;;
20336;SDS011;10326;53.660;10.200;2023-12-04T01:42:36;23.17;;;17.23;;
20336;SDS011;10326;53.660;10.200;2023-12-04T01:45:03;23.33;;;16.90;;
20336;SDS011;10326;53.660;10.200;2023-12-04T01:47:32;22.30;;;16.50;;
20336;SDS011;10326;53.660;10.200;2023-12-04T01:49:59;23.80;;;17.10;;
20336;SDS011;10326;53.660;10.200;2023-12-04T01:52:26;22.03;;;15.60;;
20336;SDS011;10326;53.660;10.200;2023-12-04T01:54:54;21.70;;;16.60;;
20336;SDS011;10326;53.660;10.200;2023-12-04T01:57:21;23.43;;;17.40;;
20336;SDS011;10326;53.660;10.200;2023-12-04T01:59:49;21.80;;;16.13;;
20336;SDS011;10326;53.660;10.200;2023-12-04T02:02:16;24.00;;;16.77;;
20336;SDS011;10326;53.660;10.200;2023-12-04T02:04:44;23.40;;;16.90;;
20336;SDS011;10326;53.660;10.200;2023-12-04T02:07:11;22.93;;;16.73;;
20336;SDS011;10326;53.660;10.200;2023-12-04T02:09:38;23.77;;;16.87;;
20336;SDS011;10326;53.660;10.200;2023-12-04T02:12:05;21.50;;;15.77;;
20336;SDS011;10326;53.660;10.200;2023-12-04T02:14:32;21.87;;;15.83;;
20336;SDS011;10326;53.660;10.200;2023-12-04T02:17:01;21.67;;;16.27;;
20336;SDS011;10326;53.660;10.200;2023-12-04T02:19:30;23.73;;;16.80;;
20336;SDS011;10326;53.660;10.200;2023-12-04T02:21:57;22.23;;;15.97;;
20336;SDS011;10326;53.660;10.200;2023-12-04T02:24:25;23.13;;;16.50;;
20336;SDS011;10326;53.660;10.200;2023-12-04T02:26:53;21.23;;;16.00;;
20336;SDS011;10326;53.660;10.200;2023-12-04T02:29:26;21.67;;;16.23;;
20336;SDS011;10326;53.660;10.200;2023-12-04T02:31:58;23.47;;;17.07;;
20336;SDS011;10326;53.660;10.200;2023-12-04T02:34:27;22.83;;;15.70;;
20336;SDS011;10326;53.660;10.200;2023-12-04T02:36:56;21.63;;;15.87;;
20336;SDS011;10326;53.660;10.200;2023-12-04T02:39:25;22.70;;;16.50;;
20336;SDS011;10326;53.660;10.200;2023-12-04T02:41:52;24.00;;;16.43;;
20336;SDS011;10326;53.660;10.200;2023-12-04T02:44:19;23.37;;;16.53;;
20336;SDS011;10326;53.660;10.200;2023-12-04T02:46:46;23.83;;;16.47;;
20336;SDS011;10326;53.660;10.200;2023-12-04T02:49:14;23.00;;;16.13;;
20336;SDS011;10326;53.660;10.200;2023-12-04T02:51:41;21.03;;;15.93;;
20336;SDS011;10326;53.660;10.200;2023-12-04T02:54:08;22.47;;;16.30;;
20336;SDS011;10326;53.660;10.200;2023-12-04T02:56:36;21.10;;;16.00;;
20336;SDS011;10326;53.660;10.200;2023-12-04T02:59:03;21.50;;;15.43;;
20336;SDS011;10326;53.660;10.200;2023-12-04T03:01:30;22.87;;;16.33;;
20336;SDS011;10326;53.660;10.200;2023-12-04T03:03:57;22.10;;;16.00;;
20336;SDS011;10326;53.660;10.200;2023-12-04T03:06:24;23.87;;;16.33;;
20336;SDS011;10326;53.660;10.200;2023-12-04T03:08:51;23.13;;;15.77;;
20336;SDS011;10326;53.660;10.200;2023-12-04T03:11:18;22.33;;;16.50;;
20336;SDS011;10326;53.660;10.200;2023-12-04T03:13:46;22.37;;;16.40;;
20336;SDS011;10326;53.660;10.200;2023-12-04T03:16:16;20.70;;;14.97;;
20336;SDS011;10326;53.660;10.200;2023-12-04T03:18:44;21.77;;;15.80;;
20336;SDS011;10326;53.660;10.200;2023-12-04T03:21:11;20.93;;;15.90;;
20336;SDS011;10326;53.660;10.200;2023-12-04T03:23:39;21.97;;;15.73;;
20336;SDS011;10326;53.660;10.200;2023-12-04T03:26:06;19.23;;;14.63;;
20336;SDS011;10326;53.660;10.200;2023-12-04T03:28:33;21.53;;;15.07;;
20336;SDS011;10326;53.660;10.200;2023-12-04T03:31:01;21.40;;;15.07;;
20336;SDS011;10326;53.660;10.200;2023-12-04T03:33:29;23.43;;;16.83;;
20336;SDS011;10326;53.660;10.200;2023-12-04T03:35:56;20.27;;;14.87;;
20336;SDS011;10326;53.660;10.200;2023-12-04T03:38:24;21.70;;;15.80;;
20336;SDS011;10326;53.660;10.200;2023-12-04T03:40:51;23.10;;;16.17;;
20336;SDS011;10326;53.660;10.200;2023-12-04T03:43:18;21.20;;;16.20;;
20336;SDS011;10326;53.660;10.200;2023-12-04T03:45:45;22.17;;;16.33;;
20336;SDS011;10326;53.660;10.200;2023-12-04T03:48:14;20.77;;;15.17;;
20336;SDS011;10326;53.660;10.200;2023-12-04T03:50:41;20.63;;;15.73;;
20336;SDS011;10326;53.660;10.200;2023-12-04T03:53:08;22.00;;;15.53;;
20336;SDS011;10326;53.660;10.200;2023-12-04T03:55:35;22.43;;;15.63;;
20336;SDS011;10326;53.660;10.200;2023-12-04T03:58:03;21.30;;;15.87;;
20336;SDS011;10326;53.660;10.200;2023-12-04T04:00:30;21.27;;;14.90;;
20336;SDS011;10326;53.660;10.200;2023-12-04T04:02:57;20.33;;;14.40;;
20336;SDS011;10326;53.660;10.200;2023-12-04T04:05:25;22.07;;;15.73;;
20336;SDS011;10326;53.660;10.200;2023-12-04T04:07:53;21.63;;;16.23;;
20336;SDS011;10326;53.660;10.200;2023-12-04T04:10:20;21.40;;;14.50;;
20336;SDS011;10326;53.660;10.200;2023-12-04T04:12:47;19.13;;;15.00;;
20336;SDS011;10326;53.660;10.200;2023-12-04T04:15:14;20.87;;;14.83;;
20336;SDS011;10326;53.660;10.200;2023-12-04T04:17:41;21.23;;;15.47;;
20336;SDS011;10326;53.660;10.200;2023-12-04T04:20:08;21.27;;;14.80;;
20336;SDS011;10326;53.660;10.200;2023-12-04T04:22:38;20.47;;;15.23;;
20336;SDS011;10326;53.660;10.200;2023-12-04T04:25:06;19.70;;;15.07;;
20336;SDS011;10326;53.660;10.200;2023-12-04T04:27:34;21.10;;;15.10;;
20336;SDS011;10326;53.660;10.200;2023-12-04T04:30:02;22.77;;;15.77;;
20336;SDS011;10326;53.660;10.200;2023-12-04T04:32:30;20.13;;;15.33;;
20336;SDS011;10326;53.660;10.200;2023-12-04T04:34:57;21.40;;;15.47;;
20336;SDS011;10326;53.660;10.200;2023-12-04T04:37:24;23.77;;;15.77;;
20336;SDS011;10326;53.660;10.200;2023-12-04T04:39:52;22.70;;;16.53;;
20336;SDS011;10326;53.660;10.200;2023-12-04T04:42:19;23.47;;;15.87;;
20336;SDS011;10326;53.660;10.200;2023-12-04T04:44:48;25.33;;;17.47;;
20336;SDS011;10326;53.660;10.200;2023-12-04T04:47:15;21.57;;;16.37;;
20336;SDS011;10326;53.660;10.200;2023-12-04T04:49:42;24.33;;;17.10;;
20336;SDS011;10326;53.660;10.200;2023-12-04T04:52:09;25.30;;;16.60;;
20336;SDS011;10326;53.660;10.200;2023-12-04T04:54:36;22.00;;;16.50;;
20336;SDS011;10326;53.660;10.200;2023-12-04T04:57:04;22.27;;;16.43;;
20336;SDS011;10326;53.660;10.200;2023-12-04T04:59:31;22.80;;;16.17;;
20336;SDS011;10326;53.660;10.200;2023-12-04T05:01:58;22.27;;;16.30;;
20336;SDS011;10326;53.660;10.200;2023-12-04T05:04:24;22.53;;;16.10;;
20336;SDS011;10326;53.660;10.200;2023-12-04T05:06:52;22.60;;;15.30;;
20336;SDS011;10326;53.660;10.200;2023-12-04T05:09:19;21.73;;;15.70;;
20336;SDS011;10326;53.660;10.200;2023-12-04T05:11:46;20.80;;;15.30;;
20336;SDS011;10326;53.660;10.200;2023-12-04T05:14:15;21.33;;;15.57;;
20336;SDS011;10326;53.660;10.200;2023-12-04T05:16:42;20.77;;;15.67;;
20336;SDS011;10326;53.660;10.200;2023-12-04T05:19:09;20.73;;;15.83;;
20336;SDS011;10326;53.660;10.200;2023-12-04T05:21:36;23.17;;;15.33;;
20336;SDS011;10326;53.660;10.200;2023-12-04T05:24:03;21.13;;;15.17;;
20336;SDS011;10326;53.660;10.200;2023-12-04T05:26:30;21.30;;;16.07;;
20336;SDS011;10326;53.660;10.200;2023-12-04T05:28:57;22.40;;;15.87;;
20336;SDS011;10326;53.660;10.200;2023-12-04T05:31:26;23.40;;;15.83;;
20336;SDS011;10326;53.660;10.200;2023-12-04T05:33:53;21.43;;;15.80;;
20336;SDS011;10326;53.660;10.200;2023-12-04T05:36:20;20.87;;;16.03;;
20336;SDS011;10326;53.660;10.200;2023-12-04T05:38:47;21.23;;;15.63;;
20336;SDS011;10326;53.660;10.200;2023-12-04T05:41:14;22.60;;;16.10;;
20336;SDS011;10326;53.660;10.200;2023-12-04T05:43:41;22.27;;;15.50;;
20336;SDS011;10326;53.660;10.200;2023-12-04T05:46:08;24.93;;;16.30;;
20336;SDS011;10326;53.660;10.200;2023-12-04T05:48:36;23.77;;;16.67;;
20336;SDS011;10326;53.660;10.200;2023-12-04T05:51:03;23.40;;;16.90;;
20336;SDS011;10326;53.660;10.200;2023-12-04T05:53:31;24.50;;;16.63;;
20336;SDS011;10326;53.660;10.200;2023-12-04T05:55:58;24.47;;;16.73;;
20336;SDS011;10326;53.660;10.200;2023-12-04T05:58:25;21.70;;;16.13;;
20336;SDS011;10326;53.660;10.200;2023-12-04T06:00:52;24.90;;;17.67;;
20336;SDS011;10326;53.660;10.200;2023-12-04T06:03:19;25.90;;;17.90;;
20336;SDS011;10326;53.660;10.200;2023-12-04T06:05:47;24.23;;;17.43;;
20336;SDS011;10326;53.660;10.200;2023-12-04T06:08:14;23.70;;;16.70;;
20336;SDS011;10326;53.660;10.200;2023-12-04T06:10:41;24.80;;;16.90;;
20336;SDS011;10326;53.660;10.200;2023-12-04T06:13:08;25.50;;;17.43;;
20336;SDS011;10326;53.660;10.200;2023-12-04T06:15:35;24.57;;;17.30;;
20336;SDS011;10326;53.660;10.200;2023-12-04T06:18:02;27.13;;;17.87;;
20336;SDS011;10326;53.660;10.200;2023-12-04T06:20:29;25.43;;;18.00;;
20336;SDS011;10326;53.660;10.200;2023-12-04T06:22:58;25.63;;;18.23;;
20336;SDS011;10326;53.660;10.200;2023-12-04T06:25:26;26.33;;;18.27;;
20336;SDS011;10326;53.660;10.200;2023-12-04T06:27:54;26.13;;;18.13;;
20336;SDS011;10326;53.660;10.200;2023-12-04T06:30:22;24.83;;;17.90;;
20336;SDS011;10326;53.660;10.200;2023-12-04T06:32:50;26.37;;;18.83;;
20336;SDS011;10326;53.660;10.200;2023-12-04T06:35:18;25.90;;;18.47;;
20336;SDS011;10326;53.660;10.200;2023-12-04T06:37:47;25.17;;;18.67;;
20336;SDS011;10326;53.660;10.200;2023-12-04T06:40:17;27.73;;;19.50;;
20336;SDS011;10326;53.660;10.200;2023-12-04T06:42:45;26.80;;;19.00;;
20336;SDS011;10326;53.660;10.200;2023-12-04T06:45:13;26.27;;;18.87;;
20336;SDS011;10326;53.660;10.200;2023-12-04T06:47:42;25.50;;;18.40;;
20336;SDS011;10326;53.660;10.200;2023-12-04T06:50:12;25.13;;;18.83;;
20336;SDS011;10326;53.660;10.200;2023-12-04T06:52:39;26.87;;;19.30;;
20336;SDS011;10326;53.660;10.200;2023-12-04T06:55:06;27.30;;;19.57;;
20336;SDS011;10326;53.660;10.200;2023-12-04T06:57:35;25.50;;;18.30;;
20336;SDS011;10326;53.660;10.200;2023-12-04T07:00:03;25.53;;;18.77;;
20336;SDS011;10326;53.660;10.200;2023-12-04T07:02:32;28.67;;;19.40;;
20336;SDS011;10326;53.660;10.200;2023-12-04T07:04:59;26.23;;;19.23;;
20336;SDS011;10326;53.660;10.200;2023-12-04T07:07:28;27.27;;;19.43;;
20336;SDS011;10326;53.660;10.200;2023-12-04T07:09:55;25.77;;;17.83;;
20336;SDS011;10326;53.660;10.200;2023-12-04T07:12:22;25.53;;;18.57;;
20336;SDS011;10326;53.660;10.200;2023-12-04T07:14:51;26.27;;;18.83;;
20336;SDS011;10326;53.660;10.200;2023-12-04T07:17:18;26.67;;;19.07;;
20336;SDS011;10326;53.660;10.200;2023-12-04T07:19:45;23.77;;;17.63;;
20336;SDS011;10326;53.660;10.200;2023-12-04T07:22:12;28.27;;;19.73;;
20336;SDS011;10326;53.660;10.200;2023-12-04T07:24:39;26.07;;;18.13;;
20336;SDS011;10326;53.660;10.200;2023-12-04T07:27:06;25.30;;;18.43;;
20336;SDS011;10326;53.660;10.200;2023-12-04T07:29:34;24.73;;;18.23;;
20336;SDS011;10326;53.660;10.200;2023-12-04T07:32:04;24.30;;;17.23;;
20336;SDS011;10326;53.660;10.200;2023-12-04T07:34:33;23.60;;;16.83;;
20336;SDS011;10326;53.660;10.200;2023-12-04T07:37:00;24.87;;;18.03;;
20336;SDS011;10326;53.660;10.200;2023-12-04T07:39:27;25.70;;;18.13;;
20336;SDS011;10326;53.660;10.200;2023-12-04T07:41:54;21.83;;;16.63;;
20336;SDS011;10326;53.660;10.200;2023-12-04T07:44:21;24.10;;;17.30;;
20336;SDS011;10326;53.660;10.200;2023-12-04T07:46:48;24.67;;;17.63;;
20336;SDS011;10326;53.660;10.200;2023-12-04T07:49:17;23.63;;;16.97;;
20336;SDS011;10326;53.660;10.200;2023-12-04T07:51:44;22.23;;;16.53;;
20336;SDS011;10326;53.660;10.200;2023-12-04T07:54:11;22.30;;;15.67;;
20336;SDS011;10326;53.660;10.200;2023-12-04T07:56:38;21.63;;;15.83;;
20336;SDS011;10326;53.660;10.200;2023-12-04T07:59:05;22.53;;;17.20;;
20336;SDS011;10326;53.660;10.200;2023-12-04T08:01:32;24.23;;;16.80;;
20336;SDS011;10326;53.660;10.200;2023-12-04T08:03:59;24.03;;;16.87;;
20336;SDS011;10326;53.660;10.200;2023-12-04T08:06:29;22.60;;;17.00;;
20336;SDS011;10326;53.660;10.200;2023-12-04T08:08:56;22.73;;;17.27;;
20336;SDS011;10326;53.660;10.200;2023-12-04T08:11:24;23.50;;;16.60;;
20336;SDS011;10326;53.660;10.200;2023-12-04T08:13:51;23.80;;;17.13;;
20336;SDS011;10326;53.660;10.200;2023-12-04T08:16:18;25.83;;;18.57;;
20336;SDS011;10326;53.660;10.200;2023-12-04T08:18:46;24.70;;;17.80;;
20336;SDS011;10326;53.660;10.200;2023-12-04T08:21:13;25.63;;;17.70;;
20336;SDS011;10326;53.660;10.200;2023-12-04T08:23:41;24.33;;;18.10;;
20336;SDS011;10326;53.660;10.200;2023-12-04T08:26:08;22.43;;;17.03;;
20336;SDS011;10326;53.660;10.200;2023-12-04T08:28:36;25.07;;;18.17;;
20336;SDS011;10326;53.660;10.200;2023-12-04T08:31:06;25.33;;;18.27;;
20336;SDS011;10326;53.660;10.200;2023-12-04T08:33:34;23.00;;;16.60;;
20336;SDS011;10326;53.660;10.200;2023-12-04T08:36:01;24.03;;;17.57;;
20336;SDS011;10326;53.660;10.200;2023-12-04T08:38:29;24.50;;;18.13;;
20336;SDS011;10326;53.660;10.200;2023-12-04T08:40:57;22.57;;;16.70;;
20336;SDS011;10326;53.660;10.200;2023-12-04T08:43:24;24.97;;;17.87;;
20336;SDS011;10326;53.660;10.200;2023-12-04T08:45:51;21.87;;;16.90;;
20336;SDS011;10326;53.660;10.200;2023-12-04T08:48:18;24.47;;;17.33;;
20336;SDS011;10326;53.660;10.200;2023-12-04T08:50:45;23.40;;;17.97;;
20336;SDS011;10326;53.660;10.200;2023-12-04T08:53:13;25.07;;;17.57;;
20336;SDS011;10326;53.660;10.200;2023-12-04T08:55:40;24.60;;;17.80;;
20336;SDS011;10326;53.660;10.200;2023-12-04T08:58:09;23.87;;;17.53;;
20336;SDS011;10326;53.660;10.200;2023-12-04T09:00:36;25.57;;;18.60;;
20336;SDS011;10326;53.660;10.200;2023-12-04T09:03:07;23.43;;;17.50;;
20336;SDS011;10326;53.660;10.200;2023-12-04T09:05:35;22.87;;;17.13;;
20336;SDS011;10326;53.660;10.200;2023-12-04T09:08:02;24.33;;;18.17;;
20336;SDS011;10326;53.660;10.200;2023-12-04T09:10:30;23.97;;;17.27;;
20336;SDS011;10326;53.660;10.200;2023-12-04T09:12:57;23.90;;;17.50;;
20336;SDS011;10326;53.660;10.200;2023-12-04T09:15:25;25.37;;;18.20;;
20336;SDS011;10326;53.660;10.200;2023-12-04T09:17:52;21.17;;;16.67;;
20336;SDS011;10326;53.660;10.200;2023-12-04T09:20:19;24.27;;;17.87;;
20336;SDS011;10326;53.660;10.200;2023-12-04T09:22:46;22.93;;;17.03;;
20336;SDS011;10326;53.660;10.200;2023-12-04T09:25:14;25.57;;;18.37;;
20336;SDS011;10326;53.660;10.200;2023-12-04T09:27:41;24.27;;;17.83;;
20336;SDS011;10326;53.660;10.200;2023-12-04T09:30:08;23.27;;;17.00;;
20336;SDS011;10326;53.660;10.200;2023-12-04T09:32:37;24.30;;;16.70;;
20336;SDS011;10326;53.660;10.200;2023-12-04T09:35:05;23.10;;;16.67;;
20336;SDS011;10326;53.660;10.200;2023-12-04T09:37:32;22.43;;;16.53;;
20336;SDS011;10326;53.660;10.200;2023-12-04T09:39:59;23.17;;;16.13;;
20336;SDS011;10326;53.660;10.200;2023-12-04T09:42:26;21.83;;;16.37;;
20336;SDS011;10326;53.660;10.200;2023-12-04T09:44:54;24.40;;;17.33;;
20336;SDS011;10326;53.660;10.200;2023-12-04T09:47:21;19.30;;;15.57;;
20336;SDS011;10326;53.660;10.200;2023-12-04T09:49:51;23.03;;;16.83;;
20336;SDS011;10326;53.660;10.200;2023-12-04T09:52:20;22.13;;;16.33;;
20336;SDS011;10326;53.660;10.200;2023-12-04T09:54:47;23.57;;;16.43;;
20336;SDS011;10326;53.660;10.200;2023-12-04T09:57:14;21.57;;;15.93;;
20336;SDS011;10326;53.660;10.200;2023-12-04T09:59:43;22.83;;;16.57;;
20336;SDS011;10326;53.660;10.200;2023-12-04T10:02:11;21.77;;;16.37;;
20336;SDS011;10326;53.660;10.200;2023-12-04T10:04:38;21.37;;;15.80;;
20336;SDS011;10326;53.660;10.200;2023-12-04T10:07:09;19.77;;;14.83;;
20336;SDS011;10326;53.660;10.200;2023-12-04T10:09:37;20.17;;;14.90;;
20336;SDS011;10326;53.660;10.200;2023-12-04T10:12:05;19.70;;;14.93;;
20336;SDS011;10326;53.660;10.200;2023-12-04T10:14:33;20.20;;;16.03;;
20336;SDS011;10326;53.660;10.200;2023-12-04T10:17:04;18.30;;;14.57;;
20336;SDS011;10326;53.660;10.200;2023-12-04T10:19:41;20.53;;;15.00;;
20336;SDS011;10326;53.660;10.200;2023-12-04T10:22:12;19.40;;;15.30;;
20336;SDS011;10326;53.660;10.200;2023-12-04T10:24:40;20.63;;;15.03;;
20336;SDS011;10326;53.660;10.200;2023-12-04T10:27:08;19.77;;;15.00;;
20336;SDS011;10326;53.660;10.200;2023-12-04T10:29:40;21.83;;;14.87;;
20336;SDS011;10326;53.660;10.200;2023-12-04T10:32:09;19.13;;;14.43;;
20336;SDS011;10326;53.660;10.200;2023-12-04T10:34:36;19.30;;;15.07;;
20336;SDS011;10326;53.660;10.200;2023-12-04T10:37:04;19.50;;;14.43;;
20336;SDS011;10326;53.660;10.200;2023-12-04T10:39:34;20.90;;;15.80;;
20336;SDS011;10326;53.660;10.200;2023-12-04T10:42:22;22.07;;;16.17;;
20336;SDS011;10326;53.660;10.200;2023-12-04T10:44:52;20.37;;;15.63;;
20336;SDS011;10326;53.660;10.200;2023-12-04T10:47:22;20.30;;;15.57;;
20336;SDS011;10326;53.660;10.200;2023-12-04T10:49:49;19.30;;;15.33;;
20336;SDS011;10326;53.660;10.200;2023-12-04T10:52:17;22.00;;;15.80;;
20336;SDS011;10326;53.660;10.200;2023-12-04T10:54:46;19.10;;;14.27;;
20336;SDS011;10326;53.660;10.200;2023-12-04T10:57:15;19.33;;;14.80;;
20336;SDS011;10326;53.660;10.200;2023-12-04T10:59:48;20.53;;;15.93;;
20336;SDS011;10326;53.660;10.200;2023-12-04T11:02:24;22.77;;;15.97;;
20336;SDS011;10326;53.660;10.200;2023-12-04T11:04:54;19.87;;;15.07;;
20336;SDS011;10326;53.660;10.200;2023-12-04T11:07:27;20.30;;;14.87;;
20336;SDS011;10326;53.660;10.200;2023-12-04T11:09:58;19.03;;;14.70;;
20336;SDS011;10326;53.660;10.200;2023-12-04T11:12:27;19.97;;;15.03;;
20336;SDS011;10326;53.660;10.200;2023-12-04T11:14:59;19.10;;;15.23;;
20336;SDS011;10326;53.660;10.200;2023-12-04T11:17:33;19.17;;;14.83;;
20336;SDS011;10326;53.660;10.200;2023-12-04T11:20:04;19.07;;;15.60;;
20336;SDS011;10326;53.660;10.200;2023-12-04T11:22:37;19.63;;;15.17;;
20336;SDS011;10326;53.660;10.200;2023-12-04T11:25:07;19.17;;;15.67;;
20336;SDS011;10326;53.660;10.200;2023-12-04T11:27:35;20.10;;;16.07;;
20336;SDS011;10326;53.660;10.200;2023-12-04T11:30:03;18.07;;;14.73;;
20336;SDS011;10326;53.660;10.200;2023-12-04T11:32:35;20.37;;;15.13;;
20336;SDS011;10326;53.660;10.200;2023-12-04T11:35:12;17.43;;;14.13;;
20336;SDS011;10326;53.660;10.200;2023-12-04T11:37:43;20.00;;;15.73;;
20336;SDS011;10326;53.660;10.200;2023-12-04T11:40:14;18.30;;;14.60;;
20336;SDS011;10326;53.660;10.200;2023-12-04T11:42:42;19.57;;;15.03;;
20336;SDS011;10326;53.660;10.200;2023-12-04T11:45:10;22.13;;;15.60;;
20336;SDS011;10326;53.660;10.200;2023-12-04T11:47:49;19.40;;;15.17;;
20336;SDS011;10326;53.660;10.200;2023-12-04T11:50:21;17.20;;;13.80;;
20336;SDS011;10326;53.660;10.200;2023-12-04T11:52:50;17.33;;;13.60;;
20336;SDS011;10326;53.660;10.200;2023-12-04T11:55:19;21.07;;;15.33;;
20336;SDS011;10326;53.660;10.200;2023-12-04T11:57:49;17.97;;;15.00;;
20336;SDS011;10326;53.660;10.200;2023-12-04T12:00:21;21.53;;;16.20;;
20336;SDS011;10326;53.660;10.200;2023-12-04T12:03:03;20.50;;;16.07;;
20336;SDS011;10326;53.660;10.200;2023-12-04T12:05:34;19.27;;;15.40;;
20336;SDS011;10326;53.660;10.200;2023-12-04T12:08:04;18.40;;;14.80;;
20336;SDS011;10326;53.660;10.200;2023-12-04T12:10:34;20.40;;;16.40;;
20336;SDS011;10326;53.660;10.200;2023-12-04T12:13:01;20.03;;;15.90;;
20336;SDS011;10326;53.660;10.200;2023-12-04T12:15:28;18.17;;;14.13;;
20336;SDS011;10326;53.660;10.200;2023-12-04T12:17:57;20.27;;;14.97;;
20336;SDS011;10326;53.660;10.200;2023-12-04T12:20:25;19.93;;;14.93;;
20336;SDS011;10326;53.660;10.200;2023-12-04T12:22:53;21.03;;;15.57;;
20336;SDS011;10326;53.660;10.200;2023-12-04T12:25:20;18.00;;;14.50;;
20336;SDS011;10326;53.660;10.200;2023-12-04T12:27:50;19.87;;;15.10;;
20336;SDS011;10326;53.660;10.200;2023-12-04T12:30:17;20.67;;;16.23;;
20336;SDS011;10326;53.660;10.200;2023-12-04T12:32:44;21.17;;;15.93;;
20336;SDS011;10326;53.660;10.200;2023-12-04T12:35:11;21.50;;;15.70;;
20336;SDS011;10326;53.660;10.200;2023-12-04T12:37:38;21.87;;;16.03;;
20336;SDS011;10326;53.660;10.200;2023-12-04T12:40:06;17.80;;;14.30;;
20336;SDS011;10326;53.660;10.200;2023-12-04T12:42:37;19.57;;;15.50;;
20336;SDS011;10326;53.660;10.200;2023-12-04T12:45:09;19.40;;;15.33;;
20336;SDS011;10326;53.660;10.200;2023-12-04T12:47:37;19.97;;;15.33;;
20336;SDS011;10326;53.660;10.200;2023-12-04T12:50:08;18.97;;;15.23;;
20336;SDS011;10326;53.660;10.200;2023-12-04T12:52:38;19.80;;;15.77;;
20336;SDS011;10326;53.660;10.200;2023-12-04T12:55:06;20.33;;;15.77;;
20336;SDS011;10326;53.660;10.200;2023-12-04T12:57:34;19.93;;;15.27;;
20336;SDS011;10326;53.660;10.200;2023-12-04T13:00:01;19.23;;;15.37;;
20336;SDS011;10326;53.660;10.200;2023-12-04T13:02:34;19.90;;;15.10;;
20336;SDS011;10326;53.660;10.200;2023-12-04T13:05:02;18.87;;;15.37;;
20336;SDS011;10326;53.660;10.200;2023-12-04T13:07:31;19.97;;;15.07;;
20336;SDS011;10326;53.660;10.200;2023-12-04T13:09:58;19.53;;;15.60;;
20336;SDS011;10326;53.660;10.200;2023-12-04T13:12:25;20.23;;;15.77;;
20336;SDS011;10326;53.660;10.200;2023-12-04T13:14:52;19.27;;;15.23;;
20336;SDS011;10326;53.660;10.200;2023-12-04T13:17:19;19.43;;;14.97;;
20336;SDS011;10326;53.660;10.200;2023-12-04T13:19:48;18.40;;;15.20;;
20336;SDS011;10326;53.660;10.200;2023-12-04T13:22:15;22.27;;;16.70;;
20336;SDS011;10326;53.660;10.200;2023-12-04T13:24:42;19.20;;;15.57;;
20336;SDS011;10326;53.660;10.200;2023-12-04T13:27:09;18.30;;;14.67;;
20336;SDS011;10326;53.660;10.200;2023-12-04T13:29:36;18.70;;;15.07;;
20336;SDS011;10326;53.660;10.200;2023-12-04T13:32:04;19.80;;;15.40;;
20336;SDS011;10326;53.660;10.200;2023-12-04T13:34:32;19.23;;;14.83;;
20336;SDS011;10326;53.660;10.200;2023-12-04T13:37:01;19.40;;;15.67;;
20336;SDS011;10326;53.660;10.200;2023-12-04T13:39:29;18.97;;;15.50;;
20336;SDS011;10326;53.660;10.200;2023-12-04T13:42:12;20.10;;;14.80;;
20336;SDS011;10326;53.660;10.200;2023-12-04T13:44:57;18.53;;;14.90;;
20336;SDS011;10326;53.660;10.200;2023-12-04T13:47:25;18.93;;;14.47;;
20336;SDS011;10326;53.660;10.200;2023-12-04T13:49:52;20.07;;;15.23;;
20336;SDS011;10326;53.660;10.200;2023-12-04T13:52:21;18.77;;;14.73;;
20336;SDS011;10326;53.660;10.200;2023-12-04T13:54:49;18.93;;;14.30;;
20336;SDS011;10326;53.660;10.200;2023-12-04T13:57:19;18.73;;;15.33;;
20336;SDS011;10326;53.660;10.200;2023-12-04T13:59:47;19.47;;;15.53;;
20336;SDS011;10326;53.660;10.200;2023-12-04T14:02:14;19.30;;;15.07;;
20336;SDS011;10326;53.660;10.200;2023-12-04T14:04:42;19.37;;;15.20;;
20336;SDS011;10326;53.660;10.200;2023-12-04T14:07:09;20.37;;;15.63;;
20336;SDS011;10326;53.660;10.200;2023-12-04T14:09:38;17.87;;;14.63;;
20336;SDS011;10326;53.660;10.200;2023-12-04T14:12:06;18.83;;;14.93;;
20336;SDS011;10326;53.660;10.200;2023-12-04T14:14:34;18.67;;;14.30;;